sensor_id;sensor_type;location;lat;lon;timestamp;P1;durP1;ratioP1;P2;durP2;ratioP2
63943;SDS011;50121;51.218;7.664;2023-11-18T00:02:07;22.02;;;11.32;;
63943;SDS011;50121;51.218;7.664;2023-11-18T00:04:34;20.02;;;10.88;;
63943;SDS011;50121;51.218;7.664;2023-11-18T00:07:02;19.73;;;11.23;;
63943;SDS011;50121;51.218;7.664;2023-11-18T00:09:30;18.48;;;11.65;;
63943;SDS011;50121;51.218;7.664;2023-11-18T00:11:58;24.30;;;11.77;;
63943;SDS011;50121;51.218;7.664;2023-11-18T00:14:25;19.52;;;11.13;;
63943;SDS011;50121;51.218;7.664;2023-11-18T00:16:53;20.80;;;11.27;;
63943;SDS011;50121;51.218;7.664;2023-11-18T00:19:20;18.88;;;10.82;;
63943;SDS011;50121;51.218;7.664;2023-11-18T00:21:48;19.02;;;10.90;;
63943;SDS011;50121;51.218;7.664;2023-11-18T00:24:16;20.08;;;10.80;;
63943;SDS011;50121;51.218;7.664;2023-11-18T00:26:43;17.92;;;10.50;;
63943;SDS011;50121;51.218;7.664;2023-11-18T00:29:11;16.38;;;10.40;;
63943;SDS011;50121;51.218;7.664;2023-11-18T00:31:39;20.98;;;10.20;;
63943;SDS011;50121;51.218;7.664;2023-11-18T00:34:06;15.63;;;10.27;;
63943;SDS011;50121;51.218;7.664;2023-11-18T00:36:34;17.98;;;10.20;;
63943;SDS011;50121;51.218;7.664;2023-11-18T00:39:02;18.73;;;9.90;;
63943;SDS011;50121;51.218;7.664;2023-11-18T00:41:31;19.27;;;10.07;;
63943;SDS011;50121;51.218;7.664;2023-11-18T00:43:59;19.00;;;10.90;;
63943;SDS011;50121;51.218;7.664;2023-11-18T00:46:27;19.10;;;9.98;;
63943;SDS011;50121;51.218;7.664;2023-11-18T00:48:55;15.02;;;9.82;;
63943;SDS011;50121;51.218;7.664;2023-11-18T00:51:24;17.15;;;9.65;;
63943;SDS011;50121;51.218;7.664;2023-11-18T00:53:53;19.40;;;10.45;;
63943;SDS011;50121;51.218;7.664;2023-11-18T00:56:21;18.95;;;10.77;;
63943;SDS011;50121;51.218;7.664;2023-11-18T00:58:48;25.63;;;14.90;;
63943;SDS011;50121;51.218;7.664;2023-11-18T01:01:16;28.58;;;14.77;;
63943;SDS011;50121;51.218;7.664;2023-11-18T01:03:45;21.23;;;11.68;;
63943;SDS011;50121;51.218;7.664;2023-11-18T01:06:13;18.60;;;11.20;;
63943;SDS011;50121;51.218;7.664;2023-11-18T01:08:43;17.83;;;11.45;;
63943;SDS011;50121;51.218;7.664;2023-11-18T01:11:18;20.98;;;11.13;;
63943;SDS011;50121;51.218;7.664;2023-11-18T01:16:13;18.63;;;10.98;;
63943;SDS011;50121;51.218;7.664;2023-11-18T01:18:41;17.48;;;10.32;;
63943;SDS011;50121;51.218;7.664;2023-11-18T01:21:09;21.15;;;11.63;;
63943;SDS011;50121;51.218;7.664;2023-11-18T01:23:38;17.83;;;10.93;;
63943;SDS011;50121;51.218;7.664;2023-11-18T01:26:09;16.13;;;11.27;;
63943;SDS011;50121;51.218;7.664;2023-11-18T01:28:39;16.85;;;11.25;;
63943;SDS011;50121;51.218;7.664;2023-11-18T01:31:09;18.85;;;10.13;;
63943;SDS011;50121;51.218;7.664;2023-11-18T01:33:37;18.40;;;11.25;;
63943;SDS011;50121;51.218;7.664;2023-11-18T01:36:07;16.60;;;9.85;;
63943;SDS011;50121;51.218;7.664;2023-11-18T01:38:35;13.48;;;9.10;;
63943;SDS011;50121;51.218;7.664;2023-11-18T01:41:07;14.07;;;9.55;;
63943;SDS011;50121;51.218;7.664;2023-11-18T01:43:36;12.57;;;9.27;;
63943;SDS011;50121;51.218;7.664;2023-11-18T01:46:04;12.90;;;9.07;;
63943;SDS011;50121;51.218;7.664;2023-11-18T01:48:33;13.32;;;9.68;;
63943;SDS011;50121;51.218;7.664;2023-11-18T01:51:01;13.75;;;9.60;;
63943;SDS011;50121;51.218;7.664;2023-11-18T01:53:30;14.38;;;9.68;;
63943;SDS011;50121;51.218;7.664;2023-11-18T01:55:59;13.82;;;9.30;;
63943;SDS011;50121;51.218;7.664;2023-11-18T01:58:27;14.50;;;9.40;;
63943;SDS011;50121;51.218;7.664;2023-11-18T02:00:57;15.63;;;10.20;;
63943;SDS011;50121;51.218;7.664;2023-11-18T02:03:25;17.80;;;10.73;;
63943;SDS011;50121;51.218;7.664;2023-11-18T02:05:53;17.10;;;10.30;;
63943;SDS011;50121;51.218;7.664;2023-11-18T02:08:21;14.85;;;9.75;;
63943;SDS011;50121;51.218;7.664;2023-11-18T02:10:49;14.63;;;9.52;;
63943;SDS011;50121;51.218;7.664;2023-11-18T02:13:22;14.60;;;9.82;;
63943;SDS011;50121;51.218;7.664;2023-11-18T02:15:53;16.45;;;10.20;;
63943;SDS011;50121;51.218;7.664;2023-11-18T02:18:24;14.30;;;9.35;;
63943;SDS011;50121;51.218;7.664;2023-11-18T02:20:53;15.25;;;9.52;;
63943;SDS011;50121;51.218;7.664;2023-11-18T02:23:24;15.13;;;9.60;;
63943;SDS011;50121;51.218;7.664;2023-11-18T02:25:54;12.85;;;9.00;;
63943;SDS011;50121;51.218;7.664;2023-11-18T02:28:24;11.63;;;8.27;;
63943;SDS011;50121;51.218;7.664;2023-11-18T02:30:53;13.50;;;8.52;;
63943;SDS011;50121;51.218;7.664;2023-11-18T02:33:23;12.73;;;8.82;;
63943;SDS011;50121;51.218;7.664;2023-11-18T02:35:59;13.00;;;8.88;;
63943;SDS011;50121;51.218;7.664;2023-11-18T02:38:35;12.63;;;8.60;;
63943;SDS011;50121;51.218;7.664;2023-11-18T02:41:05;11.30;;;7.47;;
63943;SDS011;50121;51.218;7.664;2023-11-18T02:43:35;12.70;;;7.70;;
63943;SDS011;50121;51.218;7.664;2023-11-18T02:46:04;13.38;;;8.00;;
63943;SDS011;50121;51.218;7.664;2023-11-18T02:48:34;9.85;;;7.90;;
63943;SDS011;50121;51.218;7.664;2023-11-18T02:51:02;8.35;;;6.72;;
63943;SDS011;50121;51.218;7.664;2023-11-18T02:53:30;10.35;;;7.60;;
63943;SDS011;50121;51.218;7.664;2023-11-18T02:55:57;10.15;;;7.38;;
63943;SDS011;50121;51.218;7.664;2023-11-18T02:58:31;11.52;;;7.60;;
63943;SDS011;50121;51.218;7.664;2023-11-18T03:00:59;9.70;;;6.68;;
63943;SDS011;50121;51.218;7.664;2023-11-18T03:03:27;9.15;;;6.95;;
63943;SDS011;50121;51.218;7.664;2023-11-18T03:05:55;8.45;;;7.28;;
63943;SDS011;50121;51.218;7.664;2023-11-18T03:08:22;8.00;;;7.28;;
63943;SDS011;50121;51.218;7.664;2023-11-18T03:10:50;9.77;;;7.18;;
63943;SDS011;50121;51.218;7.664;2023-11-18T03:13:19;9.45;;;7.60;;
63943;SDS011;50121;51.218;7.664;2023-11-18T03:15:46;7.28;;;6.53;;
63943;SDS011;50121;51.218;7.664;2023-11-18T03:18:15;7.75;;;6.32;;
63943;SDS011;50121;51.218;7.664;2023-11-18T03:20:42;8.35;;;6.43;;
63943;SDS011;50121;51.218;7.664;2023-11-18T03:23:10;7.72;;;6.78;;
63943;SDS011;50121;51.218;7.664;2023-11-18T03:25:38;12.75;;;7.03;;
63943;SDS011;50121;51.218;7.664;2023-11-18T03:28:05;10.48;;;6.75;;
63943;SDS011;50121;51.218;7.664;2023-11-18T03:30:33;9.85;;;6.93;;
63943;SDS011;50121;51.218;7.664;2023-11-18T03:33:03;8.82;;;6.97;;
63943;SDS011;50121;51.218;7.664;2023-11-18T03:35:31;11.75;;;7.00;;
63943;SDS011;50121;51.218;7.664;2023-11-18T03:37:59;8.63;;;6.95;;
63943;SDS011;50121;51.218;7.664;2023-11-18T03:40:26;10.82;;;7.57;;
63943;SDS011;50121;51.218;7.664;2023-11-18T03:42:55;11.52;;;7.93;;
63943;SDS011;50121;51.218;7.664;2023-11-18T03:45:25;10.10;;;7.53;;
63943;SDS011;50121;51.218;7.664;2023-11-18T03:47:52;10.48;;;7.90;;
63943;SDS011;50121;51.218;7.664;2023-11-18T03:50:20;11.05;;;7.35;;
63943;SDS011;50121;51.218;7.664;2023-11-18T03:52:48;11.50;;;7.97;;
63943;SDS011;50121;51.218;7.664;2023-11-18T03:55:15;10.52;;;7.65;;
63943;SDS011;50121;51.218;7.664;2023-11-18T03:57:44;9.32;;;7.43;;
63943;SDS011;50121;51.218;7.664;2023-11-18T04:00:14;9.65;;;7.63;;
63943;SDS011;50121;51.218;7.664;2023-11-18T04:02:42;11.93;;;8.10;;
63943;SDS011;50121;51.218;7.664;2023-11-18T04:05:12;8.90;;;8.00;;
63943;SDS011;50121;51.218;7.664;2023-11-18T04:07:39;11.10;;;7.97;;
63943;SDS011;50121;51.218;7.664;2023-11-18T04:10:08;8.93;;;7.28;;
63943;SDS011;50121;51.218;7.664;2023-11-18T04:12:37;9.85;;;7.38;;
63943;SDS011;50121;51.218;7.664;2023-11-18T04:15:05;11.02;;;7.55;;
63943;SDS011;50121;51.218;7.664;2023-11-18T04:17:32;9.52;;;7.25;;
63943;SDS011;50121;51.218;7.664;2023-11-18T04:20:00;9.13;;;7.32;;
63943;SDS011;50121;51.218;7.664;2023-11-18T04:22:30;9.70;;;6.95;;
63943;SDS011;50121;51.218;7.664;2023-11-18T04:24:58;9.98;;;8.18;;
63943;SDS011;50121;51.218;7.664;2023-11-18T04:27:26;8.07;;;7.28;;
63943;SDS011;50121;51.218;7.664;2023-11-18T04:29:53;8.98;;;7.47;;
63943;SDS011;50121;51.218;7.664;2023-11-18T04:32:21;7.80;;;7.00;;
63943;SDS011;50121;51.218;7.664;2023-11-18T04:34:49;9.02;;;7.70;;
63943;SDS011;50121;51.218;7.664;2023-11-18T04:37:18;8.70;;;7.20;;
63943;SDS011;50121;51.218;7.664;2023-11-18T04:39:45;8.43;;;6.95;;
63943;SDS011;50121;51.218;7.664;2023-11-18T04:42:12;7.85;;;7.05;;
63943;SDS011;50121;51.218;7.664;2023-11-18T04:44:42;7.82;;;7.03;;
63943;SDS011;50121;51.218;7.664;2023-11-18T04:47:09;10.13;;;7.10;;
63943;SDS011;50121;51.218;7.664;2023-11-18T04:49:37;7.40;;;6.70;;
63943;SDS011;50121;51.218;7.664;2023-11-18T04:52:13;8.63;;;6.78;;
63943;SDS011;50121;51.218;7.664;2023-11-18T04:54:41;8.68;;;6.82;;
63943;SDS011;50121;51.218;7.664;2023-11-18T04:57:08;8.00;;;6.95;;
63943;SDS011;50121;51.218;7.664;2023-11-18T04:59:36;9.75;;;7.13;;
63943;SDS011;50121;51.218;7.664;2023-11-18T05:02:03;9.15;;;7.35;;
63943;SDS011;50121;51.218;7.664;2023-11-18T05:04:31;10.02;;;7.50;;
63943;SDS011;50121;51.218;7.664;2023-11-18T05:06:58;8.77;;;7.32;;
63943;SDS011;50121;51.218;7.664;2023-11-18T05:09:26;8.70;;;7.80;;
63943;SDS011;50121;51.218;7.664;2023-11-18T05:11:53;10.93;;;7.47;;
63943;SDS011;50121;51.218;7.664;2023-11-18T05:14:21;8.60;;;7.53;;
63943;SDS011;50121;51.218;7.664;2023-11-18T05:16:49;8.45;;;7.40;;
63943;SDS011;50121;51.218;7.664;2023-11-18T05:19:17;10.90;;;7.90;;
63943;SDS011;50121;51.218;7.664;2023-11-18T05:21:44;9.88;;;8.00;;
63943;SDS011;50121;51.218;7.664;2023-11-18T05:24:15;10.65;;;7.97;;
63943;SDS011;50121;51.218;7.664;2023-11-18T05:26:43;9.75;;;8.20;;
63943;SDS011;50121;51.218;7.664;2023-11-18T05:29:11;9.73;;;7.82;;
63943;SDS011;50121;51.218;7.664;2023-11-18T05:31:43;12.68;;;8.35;;
63943;SDS011;50121;51.218;7.664;2023-11-18T05:34:10;11.25;;;8.40;;
63943;SDS011;50121;51.218;7.664;2023-11-18T05:36:39;11.25;;;8.65;;
63943;SDS011;50121;51.218;7.664;2023-11-18T05:39:07;11.25;;;8.57;;
63943;SDS011;50121;51.218;7.664;2023-11-18T05:41:36;12.13;;;8.57;;
63943;SDS011;50121;51.218;7.664;2023-11-18T05:44:06;11.73;;;8.55;;
63943;SDS011;50121;51.218;7.664;2023-11-18T05:46:36;14.60;;;9.25;;
63943;SDS011;50121;51.218;7.664;2023-11-18T05:49:05;12.65;;;9.68;;
63943;SDS011;50121;51.218;7.664;2023-11-18T05:51:34;11.82;;;9.30;;
63943;SDS011;50121;51.218;7.664;2023-11-18T05:54:02;11.02;;;9.23;;
63943;SDS011;50121;51.218;7.664;2023-11-18T05:56:29;12.27;;;9.10;;
63943;SDS011;50121;51.218;7.664;2023-11-18T05:58:58;19.05;;;13.55;;
63943;SDS011;50121;51.218;7.664;2023-11-18T06:01:25;14.30;;;12.13;;
63943;SDS011;50121;51.218;7.664;2023-11-18T06:03:56;15.85;;;13.32;;
63943;SDS011;50121;51.218;7.664;2023-11-18T06:06:24;12.77;;;9.40;;
63943;SDS011;50121;51.218;7.664;2023-11-18T06:08:52;12.10;;;9.50;;
63943;SDS011;50121;51.218;7.664;2023-11-18T06:11:20;14.82;;;10.07;;
63943;SDS011;50121;51.218;7.664;2023-11-18T06:13:50;15.43;;;10.32;;
63943;SDS011;50121;51.218;7.664;2023-11-18T06:16:19;14.60;;;9.68;;
63943;SDS011;50121;51.218;7.664;2023-11-18T06:18:51;14.18;;;9.13;;
63943;SDS011;50121;51.218;7.664;2023-11-18T06:21:20;13.82;;;9.95;;
63943;SDS011;50121;51.218;7.664;2023-11-18T06:23:51;14.32;;;9.82;;
63943;SDS011;50121;51.218;7.664;2023-11-18T06:26:21;13.95;;;9.65;;
63943;SDS011;50121;51.218;7.664;2023-11-18T06:28:49;19.05;;;12.43;;
63943;SDS011;50121;51.218;7.664;2023-11-18T06:31:17;18.35;;;12.07;;
63943;SDS011;50121;51.218;7.664;2023-11-18T06:33:45;14.55;;;9.77;;
63943;SDS011;50121;51.218;7.664;2023-11-18T06:38:43;12.23;;;9.30;;
63943;SDS011;50121;51.218;7.664;2023-11-18T06:41:11;13.75;;;9.40;;
63943;SDS011;50121;51.218;7.664;2023-11-18T06:43:40;26.83;;;16.35;;
63943;SDS011;50121;51.218;7.664;2023-11-18T06:46:19;13.50;;;9.88;;
63943;SDS011;50121;51.218;7.664;2023-11-18T06:48:49;14.85;;;9.82;;
63943;SDS011;50121;51.218;7.664;2023-11-18T06:51:17;12.88;;;9.27;;
63943;SDS011;50121;51.218;7.664;2023-11-18T06:53:44;13.90;;;9.85;;
63943;SDS011;50121;51.218;7.664;2023-11-18T06:56:12;12.82;;;9.10;;
63943;SDS011;50121;51.218;7.664;2023-11-18T06:58:39;13.85;;;9.48;;
63943;SDS011;50121;51.218;7.664;2023-11-18T07:01:08;13.35;;;10.07;;
63943;SDS011;50121;51.218;7.664;2023-11-18T07:03:36;13.32;;;9.50;;
63943;SDS011;50121;51.218;7.664;2023-11-18T07:06:04;13.82;;;9.82;;
63943;SDS011;50121;51.218;7.664;2023-11-18T07:08:32;12.02;;;8.75;;
63943;SDS011;50121;51.218;7.664;2023-11-18T07:11:02;13.13;;;9.25;;
63943;SDS011;50121;51.218;7.664;2023-11-18T07:13:29;13.00;;;9.05;;
63943;SDS011;50121;51.218;7.664;2023-11-18T07:15:57;14.20;;;9.85;;
63943;SDS011;50121;51.218;7.664;2023-11-18T07:18:25;11.77;;;9.40;;
63943;SDS011;50121;51.218;7.664;2023-11-18T07:20:52;13.55;;;9.63;;
63943;SDS011;50121;51.218;7.664;2023-11-18T07:23:20;12.80;;;9.75;;
63943;SDS011;50121;51.218;7.664;2023-11-18T07:25:48;13.85;;;10.23;;
63943;SDS011;50121;51.218;7.664;2023-11-18T07:28:16;19.13;;;12.50;;
63943;SDS011;50121;51.218;7.664;2023-11-18T07:30:44;17.83;;;11.55;;
63943;SDS011;50121;51.218;7.664;2023-11-18T07:33:16;15.25;;;9.60;;
63943;SDS011;50121;51.218;7.664;2023-11-18T07:35:48;12.63;;;9.50;;
63943;SDS011;50121;51.218;7.664;2023-11-18T07:38:16;14.13;;;9.68;;
63943;SDS011;50121;51.218;7.664;2023-11-18T07:40:47;16.08;;;9.93;;
63943;SDS011;50121;51.218;7.664;2023-11-18T07:43:15;13.80;;;9.80;;
63943;SDS011;50121;51.218;7.664;2023-11-18T07:45:42;12.90;;;9.15;;
63943;SDS011;50121;51.218;7.664;2023-11-18T07:48:10;13.95;;;9.20;;
63943;SDS011;50121;51.218;7.664;2023-11-18T07:50:39;11.15;;;8.98;;
63943;SDS011;50121;51.218;7.664;2023-11-18T07:53:13;13.27;;;9.02;;
63943;SDS011;50121;51.218;7.664;2023-11-18T07:55:41;12.90;;;8.40;;
63943;SDS011;50121;51.218;7.664;2023-11-18T07:58:09;11.88;;;9.07;;
63943;SDS011;50121;51.218;7.664;2023-11-18T08:00:37;13.23;;;9.00;;
63943;SDS011;50121;51.218;7.664;2023-11-18T08:03:12;11.38;;;8.82;;
63943;SDS011;50121;51.218;7.664;2023-11-18T08:05:41;12.63;;;8.77;;
63943;SDS011;50121;51.218;7.664;2023-11-18T08:08:12;10.85;;;7.95;;
63943;SDS011;50121;51.218;7.664;2023-11-18T08:10:40;10.90;;;8.77;;
63943;SDS011;50121;51.218;7.664;2023-11-18T08:13:10;11.13;;;7.82;;
63943;SDS011;50121;51.218;7.664;2023-11-18T08:15:38;10.65;;;7.88;;
63943;SDS011;50121;51.218;7.664;2023-11-18T08:18:06;11.77;;;7.95;;
63943;SDS011;50121;51.218;7.664;2023-11-18T08:20:36;9.63;;;8.23;;
63943;SDS011;50121;51.218;7.664;2023-11-18T08:23:05;8.07;;;7.28;;
63943;SDS011;50121;51.218;7.664;2023-11-18T08:25:38;9.40;;;7.32;;
63943;SDS011;50121;51.218;7.664;2023-11-18T08:28:07;9.82;;;6.93;;
63943;SDS011;50121;51.218;7.664;2023-11-18T08:30:37;8.82;;;6.55;;
63943;SDS011;50121;51.218;7.664;2023-11-18T08:33:06;9.02;;;6.90;;
63943;SDS011;50121;51.218;7.664;2023-11-18T08:35:39;8.38;;;6.70;;
63943;SDS011;50121;51.218;7.664;2023-11-18T08:38:08;9.95;;;6.78;;
63943;SDS011;50121;51.218;7.664;2023-11-18T08:40:39;9.43;;;6.90;;
63943;SDS011;50121;51.218;7.664;2023-11-18T08:43:06;8.55;;;7.32;;
63943;SDS011;50121;51.218;7.664;2023-11-18T08:45:34;10.77;;;7.40;;
63943;SDS011;50121;51.218;7.664;2023-11-18T08:48:04;17.10;;;10.45;;
63943;SDS011;50121;51.218;7.664;2023-11-18T08:50:35;15.20;;;9.68;;
63943;SDS011;50121;51.218;7.664;2023-11-18T08:53:03;11.82;;;8.30;;
63943;SDS011;50121;51.218;7.664;2023-11-18T08:55:32;11.00;;;8.38;;
63943;SDS011;50121;51.218;7.664;2023-11-18T08:58:07;10.68;;;7.90;;
63943;SDS011;50121;51.218;7.664;2023-11-18T09:00:57;13.00;;;8.98;;
63943;SDS011;50121;51.218;7.664;2023-11-18T09:03:40;15.85;;;10.50;;
63943;SDS011;50121;51.218;7.664;2023-11-18T09:06:18;11.98;;;8.95;;
63943;SDS011;50121;51.218;7.664;2023-11-18T09:08:53;10.85;;;7.55;;
63943;SDS011;50121;51.218;7.664;2023-11-18T09:11:22;12.50;;;7.82;;
63943;SDS011;50121;51.218;7.664;2023-11-18T09:13:52;11.95;;;9.10;;
63943;SDS011;50121;51.218;7.664;2023-11-18T09:16:27;17.25;;;11.63;;
63943;SDS011;50121;51.218;7.664;2023-11-18T09:18:56;16.65;;;10.80;;
63943;SDS011;50121;51.218;7.664;2023-11-18T09:21:28;18.90;;;13.00;;
63943;SDS011;50121;51.218;7.664;2023-11-18T09:23:59;34.80;;;21.52;;
63943;SDS011;50121;51.218;7.664;2023-11-18T09:26:29;31.83;;;17.60;;
63943;SDS011;50121;51.218;7.664;2023-11-18T09:28:57;14.02;;;11.25;;
63943;SDS011;50121;51.218;7.664;2023-11-18T09:31:24;30.95;;;18.73;;
63943;SDS011;50121;51.218;7.664;2023-11-18T09:33:53;15.73;;;11.02;;
63943;SDS011;50121;51.218;7.664;2023-11-18T09:36:24;9.82;;;7.55;;
63943;SDS011;50121;51.218;7.664;2023-11-18T09:38:55;10.85;;;7.35;;
63943;SDS011;50121;51.218;7.664;2023-11-18T09:41:23;13.63;;;7.88;;
63943;SDS011;50121;51.218;7.664;2023-11-18T09:43:53;10.55;;;7.43;;
63943;SDS011;50121;51.218;7.664;2023-11-18T09:46:24;10.30;;;7.47;;
63943;SDS011;50121;51.218;7.664;2023-11-18T09:49:05;11.63;;;8.02;;
63943;SDS011;50121;51.218;7.664;2023-11-18T09:51:42;9.82;;;7.25;;
63943;SDS011;50121;51.218;7.664;2023-11-18T09:57:31;10.10;;;8.02;;
63943;SDS011;50121;51.218;7.664;2023-11-18T10:00:02;12.10;;;7.50;;
63943;SDS011;50121;51.218;7.664;2023-11-18T10:02:49;12.77;;;8.65;;
63943;SDS011;50121;51.218;7.664;2023-11-18T10:05:18;12.73;;;8.65;;
63943;SDS011;50121;51.218;7.664;2023-11-18T10:07:53;11.65;;;7.97;;
63943;SDS011;50121;51.218;7.664;2023-11-18T10:10:20;13.25;;;8.30;;
63943;SDS011;50121;51.218;7.664;2023-11-18T10:12:49;11.40;;;7.97;;
63943;SDS011;50121;51.218;7.664;2023-11-18T10:15:25;11.30;;;7.72;;
63943;SDS011;50121;51.218;7.664;2023-11-18T10:17:54;11.50;;;8.18;;
63943;SDS011;50121;51.218;7.664;2023-11-18T10:20:42;11.38;;;7.97;;
63943;SDS011;50121;51.218;7.664;2023-11-18T10:23:14;13.65;;;8.70;;
63943;SDS011;50121;51.218;7.664;2023-11-18T10:25:49;13.50;;;8.73;;
63943;SDS011;50121;51.218;7.664;2023-11-18T10:28:27;9.85;;;7.35;;
63943;SDS011;50121;51.218;7.664;2023-11-18T10:30:55;11.38;;;7.53;;
63943;SDS011;50121;51.218;7.664;2023-11-18T10:33:42;11.23;;;8.00;;
63943;SDS011;50121;51.218;7.664;2023-11-18T10:36:19;14.48;;;7.97;;
63943;SDS011;50121;51.218;7.664;2023-11-18T10:38:50;12.57;;;8.45;;
63943;SDS011;50121;51.218;7.664;2023-11-18T10:41:22;12.73;;;8.07;;
63943;SDS011;50121;51.218;7.664;2023-11-18T10:43:52;9.68;;;7.63;;
63943;SDS011;50121;51.218;7.664;2023-11-18T10:46:32;11.32;;;7.93;;
63943;SDS011;50121;51.218;7.664;2023-11-18T10:48:59;12.50;;;8.23;;
63943;SDS011;50121;51.218;7.664;2023-11-18T10:51:28;9.98;;;8.43;;
63943;SDS011;50121;51.218;7.664;2023-11-18T10:53:57;10.68;;;8.00;;
63943;SDS011;50121;51.218;7.664;2023-11-18T10:56:25;11.43;;;8.07;;
63943;SDS011;50121;51.218;7.664;2023-11-18T10:58:56;13.25;;;8.00;;
63943;SDS011;50121;51.218;7.664;2023-11-18T11:01:28;8.85;;;7.35;;
63943;SDS011;50121;51.218;7.664;2023-11-18T11:03:56;12.70;;;7.18;;
63943;SDS011;50121;51.218;7.664;2023-11-18T11:06:24;10.05;;;7.13;;
63943;SDS011;50121;51.218;7.664;2023-11-18T11:08:51;11.35;;;7.40;;
63943;SDS011;50121;51.218;7.664;2023-11-18T11:11:20;9.63;;;7.07;;
63943;SDS011;50121;51.218;7.664;2023-11-18T11:13:53;8.32;;;7.13;;
63943;SDS011;50121;51.218;7.664;2023-11-18T11:16:27;8.50;;;7.07;;
63943;SDS011;50121;51.218;7.664;2023-11-18T11:19:01;8.50;;;7.28;;
63943;SDS011;50121;51.218;7.664;2023-11-18T11:21:37;8.65;;;7.18;;
63943;SDS011;50121;51.218;7.664;2023-11-18T11:24:11;8.98;;;6.90;;
63943;SDS011;50121;51.218;7.664;2023-11-18T11:32:21;9.40;;;7.40;;
63943;SDS011;50121;51.218;7.664;2023-11-18T11:35:00;9.60;;;7.50;;
63943;SDS011;50121;51.218;7.664;2023-11-18T11:37:34;7.95;;;7.15;;
63943;SDS011;50121;51.218;7.664;2023-11-18T11:40:02;8.30;;;6.60;;
63943;SDS011;50121;51.218;7.664;2023-11-18T11:42:34;9.10;;;7.47;;
63943;SDS011;50121;51.218;7.664;2023-11-18T11:45:02;9.52;;;6.53;;
63943;SDS011;50121;51.218;7.664;2023-11-18T11:47:30;8.48;;;7.05;;
63943;SDS011;50121;51.218;7.664;2023-11-18T11:50:07;7.43;;;6.63;;
63943;SDS011;50121;51.218;7.664;2023-11-18T11:52:42;7.88;;;7.07;;
63943;SDS011;50121;51.218;7.664;2023-11-18T11:55:24;8.02;;;7.20;;
63943;SDS011;50121;51.218;7.664;2023-11-18T11:57:55;11.00;;;7.43;;
63943;SDS011;50121;51.218;7.664;2023-11-18T12:00:27;8.40;;;6.88;;
63943;SDS011;50121;51.218;7.664;2023-11-18T12:03:01;11.23;;;7.35;;
63943;SDS011;50121;51.218;7.664;2023-11-18T12:05:31;11.30;;;7.20;;
63943;SDS011;50121;51.218;7.664;2023-11-18T12:08:00;8.40;;;6.47;;
63943;SDS011;50121;51.218;7.664;2023-11-18T12:10:31;8.13;;;6.60;;
63943;SDS011;50121;51.218;7.664;2023-11-18T12:13:11;8.23;;;6.95;;
63943;SDS011;50121;51.218;7.664;2023-11-18T12:15:49;7.00;;;6.30;;
63943;SDS011;50121;51.218;7.664;2023-11-18T12:18:21;9.65;;;7.05;;
63943;SDS011;50121;51.218;7.664;2023-11-18T12:20:49;10.88;;;7.30;;
63943;SDS011;50121;51.218;7.664;2023-11-18T12:23:24;12.40;;;8.68;;
63943;SDS011;50121;51.218;7.664;2023-11-18T12:25:51;9.98;;;7.13;;
63943;SDS011;50121;51.218;7.664;2023-11-18T12:28:30;8.80;;;7.10;;
63943;SDS011;50121;51.218;7.664;2023-11-18T12:31:01;8.98;;;7.03;;
63943;SDS011;50121;51.218;7.664;2023-11-18T12:44:48;8.32;;;6.97;;
63943;SDS011;50121;51.218;7.664;2023-11-18T12:46:49;8.75;;;7.25;;
63943;SDS011;50121;51.218;7.664;2023-11-18T12:49:17;7.78;;;6.97;;
63943;SDS011;50121;51.218;7.664;2023-11-18T12:51:50;10.77;;;6.82;;
63943;SDS011;50121;51.218;7.664;2023-11-18T12:54:19;8.13;;;6.50;;
63943;SDS011;50121;51.218;7.664;2023-11-18T12:56:49;9.40;;;6.50;;
63943;SDS011;50121;51.218;7.664;2023-11-18T12:59:20;7.38;;;6.38;;
63943;SDS011;50121;51.218;7.664;2023-11-18T13:01:47;7.00;;;6.30;;
63943;SDS011;50121;51.218;7.664;2023-11-18T13:04:20;11.15;;;6.90;;
63943;SDS011;50121;51.218;7.664;2023-11-18T13:06:47;7.13;;;6.43;;
63943;SDS011;50121;51.218;7.664;2023-11-18T13:09:17;8.63;;;6.72;;
63943;SDS011;50121;51.218;7.664;2023-11-18T13:12:02;8.30;;;6.28;;
63943;SDS011;50121;51.218;7.664;2023-11-18T13:14:35;7.47;;;6.35;;
63943;SDS011;50121;51.218;7.664;2023-11-18T13:17:03;7.10;;;6.28;;
63943;SDS011;50121;51.218;7.664;2023-11-18T13:19:32;7.40;;;6.60;;
63943;SDS011;50121;51.218;7.664;2023-11-18T13:22:01;9.45;;;6.22;;
63943;SDS011;50121;51.218;7.664;2023-11-18T13:24:38;8.30;;;6.10;;
63943;SDS011;50121;51.218;7.664;2023-11-18T13:27:21;8.85;;;6.10;;
63943;SDS011;50121;51.218;7.664;2023-11-18T13:29:57;7.45;;;6.20;;
63943;SDS011;50121;51.218;7.664;2023-11-18T13:32:39;7.20;;;6.50;;
63943;SDS011;50121;51.218;7.664;2023-11-18T13:35:13;7.38;;;6.43;;
63943;SDS011;50121;51.218;7.664;2023-11-18T13:37:48;10.30;;;6.57;;
63943;SDS011;50121;51.218;7.664;2023-11-18T13:40:16;7.95;;;6.63;;
63943;SDS011;50121;51.218;7.664;2023-11-18T13:45:59;7.18;;;5.63;;
63943;SDS011;50121;51.218;7.664;2023-11-18T13:48:28;6.47;;;5.78;;
63943;SDS011;50121;51.218;7.664;2023-11-18T13:51:03;6.47;;;5.82;;
63943;SDS011;50121;51.218;7.664;2023-11-18T13:53:34;7.10;;;6.28;;
63943;SDS011;50121;51.218;7.664;2023-11-18T13:56:07;7.40;;;6.45;;
63943;SDS011;50121;51.218;7.664;2023-11-18T13:58:39;7.30;;;6.55;;
63943;SDS011;50121;51.218;7.664;2023-11-18T14:01:07;7.10;;;6.13;;
63943;SDS011;50121;51.218;7.664;2023-11-18T14:03:35;10.68;;;7.00;;
63943;SDS011;50121;51.218;7.664;2023-11-18T14:06:06;9.32;;;8.27;;
63943;SDS011;50121;51.218;7.664;2023-11-18T14:08:37;10.40;;;7.60;;
63943;SDS011;50121;51.218;7.664;2023-11-18T14:11:05;57.58;;;24.98;;
63943;SDS011;50121;51.218;7.664;2023-11-18T14:13:35;13.52;;;9.18;;
63943;SDS011;50121;51.218;7.664;2023-11-18T14:16:04;21.33;;;13.57;;
63943;SDS011;50121;51.218;7.664;2023-11-18T14:18:35;21.48;;;13.18;;
63943;SDS011;50121;51.218;7.664;2023-11-18T14:21:03;8.93;;;7.25;;
63943;SDS011;50121;51.218;7.664;2023-11-18T14:23:32;11.57;;;9.50;;
63943;SDS011;50121;51.218;7.664;2023-11-18T14:25:59;10.38;;;8.98;;
63943;SDS011;50121;51.218;7.664;2023-11-18T14:28:27;16.40;;;11.35;;
63943;SDS011;50121;51.218;7.664;2023-11-18T14:30:55;31.02;;;19.77;;
63943;SDS011;50121;51.218;7.664;2023-11-18T14:33:24;11.23;;;8.35;;
63943;SDS011;50121;51.218;7.664;2023-11-18T14:35:52;6.60;;;5.95;;
63943;SDS011;50121;51.218;7.664;2023-11-18T14:38:20;6.60;;;6.00;;
63943;SDS011;50121;51.218;7.664;2023-11-18T14:40:48;9.90;;;6.85;;
63943;SDS011;50121;51.218;7.664;2023-11-18T14:43:16;8.80;;;6.40;;
63943;SDS011;50121;51.218;7.664;2023-11-18T14:45:45;8.10;;;6.72;;
63943;SDS011;50121;51.218;7.664;2023-11-18T14:48:12;6.93;;;6.03;;
63943;SDS011;50121;51.218;7.664;2023-11-18T14:50:40;8.82;;;6.57;;
63943;SDS011;50121;51.218;7.664;2023-11-18T14:53:08;9.70;;;6.40;;
63943;SDS011;50121;51.218;7.664;2023-11-18T14:55:35;7.15;;;6.40;;
63943;SDS011;50121;51.218;7.664;2023-11-18T14:58:06;6.32;;;5.63;;
63943;SDS011;50121;51.218;7.664;2023-11-18T15:00:33;8.90;;;5.88;;
63943;SDS011;50121;51.218;7.664;2023-11-18T15:03:01;7.05;;;6.00;;
63943;SDS011;50121;51.218;7.664;2023-11-18T15:05:29;8.60;;;5.80;;
63943;SDS011;50121;51.218;7.664;2023-11-18T15:07:57;7.47;;;5.80;;
63943;SDS011;50121;51.218;7.664;2023-11-18T15:10:26;7.63;;;5.82;;
63943;SDS011;50121;51.218;7.664;2023-11-18T15:12:55;9.10;;;6.47;;
63943;SDS011;50121;51.218;7.664;2023-11-18T15:15:25;6.25;;;5.72;;
63943;SDS011;50121;51.218;7.664;2023-11-18T15:20:30;8.48;;;5.97;;
63943;SDS011;50121;51.218;7.664;2023-11-18T15:22:58;6.68;;;6.05;;
63943;SDS011;50121;51.218;7.664;2023-11-18T15:25:26;6.13;;;5.63;;